createdAt,value
2018-07-03T00:00:41.441Z,993.68
2018-07-03T00:01:41.478Z,993.71
2018-07-03T00:02:41.519Z,993.74
2018-07-03T00:03:41.550Z,993.69
2018-07-03T00:04:41.606Z,993.74
2018-07-03T00:05:41.623Z,993.72
2018-07-03T00:07:42.525Z,993.71
2018-07-03T00:08:41.731Z,993.77
2018-07-03T00:09:41.787Z,993.74
2018-07-03T00:10:42.027Z,993.75
2018-07-03T00:11:41.841Z,993.74
2018-07-03T00:12:41.896Z,993.73
2018-07-03T00:13:41.931Z,993.70
2018-07-03T00:14:42.576Z,993.69
2018-07-03T00:20:42.590Z,993.73
2018-07-03T00:22:42.261Z,993.72
2018-07-03T00:26:33.610Z,993.77
2018-07-03T00:40:29.300Z,993.74
2018-07-03T00:41:29.964Z,993.73
2018-07-03T00:45:32.910Z,993.69
2018-07-03T00:46:29.536Z,993.74
2018-07-03T00:48:29.812Z,993.77
2018-07-03T00:49:29.622Z,993.73
2018-07-03T00:50:29.659Z,993.79
2018-07-03T00:51:29.695Z,993.75
2018-07-03T00:52:29.735Z,993.75
2018-07-03T00:54:29.804Z,993.75
2018-07-03T00:55:29.866Z,993.70
2018-07-03T00:56:30.299Z,993.72
2018-07-03T00:57:30.132Z,993.71
2018-07-03T00:59:29.999Z,993.67
2018-07-03T01:00:30.021Z,993.66
2018-07-03T01:01:30.077Z,993.65
2018-07-03T01:02:30.110Z,993.63
2018-07-03T01:03:30.129Z,993.62
2018-07-03T01:04:30.165Z,993.63
2018-07-03T01:05:30.199Z,993.60
2018-07-03T01:06:30.256Z,993.60
2018-07-03T01:07:30.272Z,993.59
2018-07-03T01:08:30.309Z,993.57
2018-07-03T01:09:30.363Z,993.59
2018-07-03T01:10:30.398Z,993.61
2018-07-03T01:11:30.416Z,993.63
2018-07-03T01:12:30.470Z,993.64
2018-07-03T01:13:31.519Z,993.70
2018-07-03T01:14:30.524Z,993.69
2018-07-03T01:16:30.597Z,993.74
2018-07-03T01:17:30.853Z,993.69
2018-07-03T01:19:30.929Z,993.78
2018-07-03T01:20:30.740Z,993.78
2018-07-03T01:21:30.794Z,993.72
2018-07-03T01:22:30.811Z,993.76
2018-07-03T01:23:30.848Z,993.77
2018-07-03T01:24:30.905Z,993.80
2018-07-03T01:25:30.920Z,993.80
2018-07-03T01:26:30.956Z,993.83
2018-07-03T01:27:30.993Z,993.79
2018-07-03T01:28:31.029Z,993.80
2018-07-03T01:29:31.064Z,993.78
2018-07-03T01:30:31.425Z,993.79
2018-07-03T01:31:31.136Z,993.78
2018-07-03T01:32:31.173Z,993.81
2018-07-03T01:33:31.226Z,993.82
2018-07-03T01:34:31.253Z,993.85
2018-07-03T01:35:31.299Z,993.79
2018-07-03T01:36:31.335Z,993.84
2018-07-03T01:37:31.371Z,993.87
2018-07-03T01:38:31.406Z,993.89
2018-07-03T01:39:31.443Z,993.90
2018-07-03T01:40:31.464Z,993.91
2018-07-03T01:41:31.516Z,993.96
2018-07-03T01:42:31.553Z,993.98
2018-07-03T01:43:31.567Z,993.98
2018-07-03T01:44:31.625Z,994.00
2018-07-03T01:45:31.659Z,994.04
2018-07-03T01:47:32.039Z,994.04
2018-07-03T01:48:31.749Z,994.08
2018-07-03T01:49:31.784Z,994.06
2018-07-03T01:50:31.819Z,994.08
2018-07-03T01:51:32.180Z,994.05
2018-07-03T01:52:31.892Z,994.05
2018-07-03T01:53:31.928Z,994.07
2018-07-03T01:54:31.964Z,994.08
2018-07-03T01:55:32.000Z,994.07
2018-07-03T01:56:32.037Z,994.08
2018-07-03T01:57:32.072Z,994.09
2018-07-03T01:58:32.410Z,994.13
2018-07-03T01:59:32.467Z,994.16
2018-07-03T02:00:32.197Z,994.17
2018-07-03T02:01:32.214Z,994.18
2018-07-03T02:02:32.273Z,994.17
2018-07-03T02:03:32.287Z,994.17
2018-07-03T02:04:32.525Z,994.21
2018-07-03T02:05:32.358Z,994.29
2018-07-03T02:06:32.394Z,994.26
2018-07-03T02:07:32.431Z,994.32
2018-07-03T02:08:32.466Z,994.33
2018-07-03T02:09:32.505Z,994.35
2018-07-03T02:10:32.535Z,994.34
2018-07-03T02:11:32.574Z,994.36
2018-07-03T02:12:32.609Z,994.33
2018-07-03T02:13:32.644Z,994.33
2018-07-03T02:14:32.680Z,994.36
2018-07-03T02:15:32.717Z,994.38
2018-07-03T02:16:32.752Z,994.35
2018-07-03T02:17:32.788Z,994.35
2018-07-03T02:18:32.821Z,994.40
2018-07-03T02:19:32.859Z,994.36
2018-07-03T02:20:33.219Z,994.36
2018-07-03T02:21:32.930Z,994.39
2018-07-03T02:22:32.966Z,994.45
2018-07-03T02:23:33.002Z,994.44
2018-07-03T02:24:33.037Z,994.44
2018-07-03T02:25:33.073Z,994.43
2018-07-03T02:26:33.107Z,994.49
2018-07-03T02:27:33.144Z,994.46
2018-07-03T02:28:33.183Z,994.47
2018-07-03T02:29:33.214Z,994.46
2018-07-03T02:30:33.254Z,994.46
2018-07-03T02:31:33.286Z,994.49
2018-07-03T02:32:33.546Z,994.47
2018-07-03T02:33:33.378Z,994.49
2018-07-03T02:34:33.397Z,994.47
2018-07-03T02:35:33.428Z,994.47
2018-07-03T02:36:33.465Z,994.41
2018-07-03T02:37:33.503Z,994.38
2018-07-03T02:38:33.535Z,994.36
2018-07-03T02:39:33.571Z,994.42
2018-07-03T02:40:33.606Z,994.38
2018-07-03T02:41:33.664Z,994.40
2018-07-03T02:42:33.677Z,994.43
2018-07-03T02:43:33.738Z,994.40
2018-07-03T02:44:33.770Z,994.39
2018-07-03T02:45:33.783Z,994.39
2018-07-03T02:46:33.821Z,994.41
2018-07-03T02:47:34.179Z,994.39
2018-07-03T02:48:34.215Z,994.40
2018-07-03T02:49:34.961Z,994.39
2018-07-03T02:50:33.984Z,994.36
2018-07-03T02:51:34.001Z,994.38
2018-07-03T02:52:34.052Z,994.41
2018-07-03T02:53:34.088Z,994.43
2018-07-03T02:54:35.642Z,994.48
2018-07-03T02:55:34.159Z,994.46
2018-07-03T02:57:34.429Z,994.43
2018-07-03T02:58:34.247Z,994.42
2018-07-03T02:59:34.499Z,994.40
2018-07-03T03:00:34.335Z,994.39
2018-07-03T03:01:34.368Z,994.42
2018-07-03T03:03:34.439Z,994.42
2018-07-03T03:04:34.786Z,994.42
2018-07-03T03:05:34.507Z,994.41
2018-07-03T03:06:34.563Z,994.42
2018-07-03T03:07:34.582Z,994.43
2018-07-03T03:08:34.623Z,994.42
2018-07-03T03:09:34.632Z,994.46
2018-07-03T03:10:34.698Z,994.43
2018-07-03T03:11:34.722Z,994.47
2018-07-03T03:12:34.758Z,994.49
2018-07-03T03:14:34.832Z,994.45
2018-07-03T03:15:34.862Z,994.48
2018-07-03T03:16:34.900Z,994.47
2018-07-03T03:17:34.935Z,994.46
2018-07-03T03:18:34.969Z,994.46
2018-07-03T03:19:36.422Z,994.47
2018-07-03T03:22:35.168Z,994.56
2018-07-03T03:23:35.127Z,994.56
2018-07-03T03:26:35.455Z,994.57
2018-07-03T03:29:35.766Z,994.57
2018-07-03T03:30:35.396Z,994.54
2018-07-03T03:32:35.748Z,994.54
2018-07-03T03:33:35.501Z,994.54
2018-07-03T03:34:35.733Z,994.56
2018-07-03T03:35:35.774Z,994.55
2018-07-03T03:36:35.604Z,994.56
2018-07-03T03:37:36.042Z,994.55
2018-07-03T03:40:35.726Z,994.55
2018-07-03T03:42:36.019Z,994.57
2018-07-03T03:46:35.958Z,994.56
2018-07-03T03:48:36.740Z,994.55
2018-07-03T03:49:36.972Z,994.60
2018-07-03T03:51:36.132Z,994.59
2018-07-03T03:52:36.572Z,994.57
2018-07-03T03:55:36.655Z,994.61
2018-07-03T03:56:36.507Z,994.58
2018-07-03T03:57:36.321Z,994.59
2018-07-03T03:58:36.375Z,994.62
2018-07-03T04:00:38.573Z,994.60
2018-07-03T04:01:36.683Z,994.60
2018-07-03T04:03:36.760Z,994.58
2018-07-03T04:04:36.598Z,994.55
2018-07-03T04:05:36.622Z,994.50
2018-07-03T04:06:36.856Z,994.51
2018-07-03T04:08:36.928Z,994.51
2018-07-03T04:09:36.962Z,994.52
2018-07-03T04:10:37.507Z,994.56
2018-07-03T04:11:37.237Z,994.54
2018-07-03T04:12:37.378Z,994.59
2018-07-03T04:13:37.104Z,994.58
2018-07-03T04:14:37.137Z,994.63
2018-07-03T04:15:37.374Z,994.60
2018-07-03T04:27:37.392Z,994.66
2018-07-03T04:28:37.427Z,994.71
2018-07-03T04:32:37.876Z,994.76
2018-07-03T04:33:38.011Z,994.78
2018-07-03T04:37:38.150Z,994.88
2018-07-03T04:38:37.981Z,994.91
2018-07-03T04:40:37.852Z,994.96
2018-07-03T04:41:37.884Z,994.93
2018-07-03T04:45:38.227Z,994.90
2018-07-03T04:48:38.135Z,994.91
2018-07-03T04:49:38.169Z,994.91
2018-07-03T04:52:38.274Z,994.93
2018-07-03T04:53:38.291Z,994.95
2018-07-03T04:54:38.327Z,994.94
2018-07-03T04:55:38.379Z,994.96
2018-07-03T04:56:38.399Z,994.94
2018-07-03T04:57:38.455Z,994.94
2018-07-03T04:58:38.469Z,994.95
2018-07-03T04:59:38.506Z,994.95
2018-07-03T05:00:38.539Z,994.96
2018-07-03T05:01:38.576Z,994.95
2018-07-03T05:02:38.612Z,994.96
2018-07-03T05:03:38.648Z,994.97
2018-07-03T05:04:38.683Z,994.96
2018-07-03T05:05:38.740Z,994.92
2018-07-03T05:06:38.754Z,994.90
2018-07-03T05:07:38.809Z,994.85
2018-07-03T05:08:38.847Z,994.90
2018-07-03T05:09:38.861Z,994.87
2018-07-03T05:10:38.898Z,994.85
2018-07-03T05:11:38.936Z,994.87
2018-07-03T05:12:38.988Z,994.88
2018-07-03T05:13:39.005Z,994.89
2018-07-03T05:14:39.040Z,994.90
2018-07-03T05:15:39.078Z,994.91
2018-07-03T05:16:39.115Z,994.99
2018-07-03T05:17:39.149Z,995.01
2018-07-03T05:18:39.185Z,995.00
2018-07-03T05:19:39.222Z,995.03
2018-07-03T05:20:39.258Z,995.04
2018-07-03T05:21:39.293Z,995.02
2018-07-03T05:22:39.330Z,995.07
2018-07-03T05:23:39.367Z,995.06
2018-07-03T05:24:39.457Z,995.06
2018-07-03T05:25:39.438Z,995.02
2018-07-03T05:26:39.475Z,995.06
2018-07-03T05:27:39.512Z,995.04
2018-07-03T05:28:39.549Z,994.99
2018-07-03T05:29:39.585Z,995.00
2018-07-03T05:30:39.621Z,995.02
2018-07-03T05:31:39.745Z,995.01
2018-07-03T05:32:39.694Z,994.99
2018-07-03T05:33:39.730Z,995.04
2018-07-03T05:34:39.969Z,995.08
2018-07-03T05:35:39.806Z,995.06
2018-07-03T05:36:39.841Z,995.12
2018-07-03T05:37:39.876Z,995.17
2018-07-03T05:38:39.914Z,995.15
2018-07-03T05:39:39.951Z,995.16
2018-07-03T05:40:39.988Z,995.18
2018-07-03T05:41:40.025Z,995.14
2018-07-03T05:42:40.062Z,995.16
2018-07-03T05:43:40.099Z,995.21
2018-07-03T05:44:40.135Z,995.19
2018-07-03T05:45:40.171Z,995.20
2018-07-03T05:46:40.209Z,995.24
2018-07-03T05:47:40.247Z,995.25
2018-07-03T05:48:40.284Z,995.24
2018-07-03T05:49:40.320Z,995.28
2018-07-03T05:50:40.358Z,995.31
2018-07-03T05:51:40.394Z,995.32
2018-07-03T05:52:40.432Z,995.32
2018-07-03T05:53:40.471Z,995.33
2018-07-03T05:54:40.506Z,995.38
2018-07-03T05:55:40.549Z,995.34
2018-07-03T05:56:40.581Z,995.32
2018-07-03T05:57:40.617Z,995.31
2018-07-03T05:58:40.656Z,995.33
2018-07-03T05:59:40.692Z,995.31
2018-07-03T06:00:40.731Z,995.33
2018-07-03T06:01:40.768Z,995.31
2018-07-03T06:02:40.806Z,995.33
2018-07-03T06:03:40.843Z,995.32
2018-07-03T06:04:40.880Z,995.38
2018-07-03T06:05:40.916Z,995.44
2018-07-03T06:06:40.960Z,995.43
2018-07-03T06:07:40.995Z,995.44
2018-07-03T06:08:41.078Z,995.54
2018-07-03T06:09:41.069Z,995.53
2018-07-03T06:10:41.107Z,995.59
2018-07-03T06:11:41.146Z,995.62
2018-07-03T06:12:41.183Z,995.63
2018-07-03T06:13:41.221Z,995.59
2018-07-03T06:14:41.259Z,995.57
2018-07-03T06:15:41.296Z,995.60
2018-07-03T06:16:41.336Z,995.60
2018-07-03T06:17:41.374Z,995.57
2018-07-03T06:18:41.411Z,995.60
2018-07-03T06:19:41.451Z,995.60
2018-07-03T06:20:41.490Z,995.64
2018-07-03T06:21:41.527Z,995.67
2018-07-03T06:22:41.584Z,995.69
2018-07-03T06:23:41.605Z,995.69
2018-07-03T06:24:41.644Z,995.73
2018-07-03T06:25:41.682Z,995.77
2018-07-03T06:26:41.721Z,995.77
2018-07-03T06:27:41.758Z,995.79
2018-07-03T06:28:41.808Z,995.79
2018-07-03T06:29:41.837Z,995.79
2018-07-03T06:30:41.876Z,995.79
2018-07-03T06:31:41.914Z,995.79
2018-07-03T06:32:41.954Z,995.82
2018-07-03T06:33:41.992Z,995.71
2018-07-03T06:34:42.031Z,995.69
2018-07-03T06:35:42.070Z,995.69
2018-07-03T06:36:42.112Z,995.72
2018-07-03T06:37:42.231Z,995.75
2018-07-03T06:38:42.188Z,995.77
2018-07-03T06:39:42.228Z,995.75
2018-07-03T06:40:42.267Z,995.76
2018-07-03T06:41:42.307Z,995.76
2018-07-03T06:42:42.344Z,995.78
2018-07-03T06:43:42.384Z,995.78
2018-07-03T06:44:42.481Z,995.75
2018-07-03T06:45:42.461Z,995.76
2018-07-03T06:46:42.501Z,995.74
2018-07-03T06:47:42.540Z,995.73
2018-07-03T06:48:42.579Z,995.71
2018-07-03T06:49:42.618Z,995.76
2018-07-03T06:50:42.755Z,995.72
2018-07-03T06:51:42.737Z,995.76
2018-07-03T06:52:42.741Z,995.77
2018-07-03T06:53:42.802Z,995.78
2018-07-03T06:54:42.816Z,995.75
2018-07-03T06:55:42.855Z,995.82
2018-07-03T06:56:42.898Z,995.82
2018-07-03T06:57:42.934Z,995.85
2018-07-03T06:58:42.973Z,995.88
2018-07-03T06:59:43.013Z,995.90
2018-07-03T07:00:43.052Z,995.85
2018-07-03T07:01:43.092Z,995.78
2018-07-03T07:02:43.132Z,995.82
2018-07-03T07:03:43.171Z,995.79
2018-07-03T07:04:43.211Z,995.78
2018-07-03T07:05:43.252Z,995.80
2018-07-03T07:06:43.294Z,995.76
2018-07-03T07:07:43.339Z,995.72
2018-07-03T07:08:43.454Z,995.72
2018-07-03T07:09:43.411Z,995.76
2018-07-03T07:10:43.449Z,995.73
2018-07-03T07:11:43.489Z,995.72
2018-07-03T07:12:43.530Z,995.75
2018-07-03T07:13:43.569Z,995.74
2018-07-03T07:14:43.609Z,995.74
2018-07-03T07:15:43.649Z,995.71
2018-07-03T07:16:43.689Z,995.67
2018-07-03T07:17:43.728Z,995.68
2018-07-03T07:18:43.767Z,995.69
2018-07-03T07:19:43.808Z,995.72
2018-07-03T07:20:43.848Z,995.74
2018-07-03T07:21:43.887Z,995.74
2018-07-03T07:22:43.931Z,995.73
2018-07-03T07:23:43.968Z,995.72
2018-07-03T07:24:44.008Z,995.75
2018-07-03T07:25:44.048Z,995.75
2018-07-03T07:26:44.088Z,995.77
2018-07-03T07:27:44.127Z,995.73
2018-07-03T07:28:44.168Z,995.76
2018-07-03T07:29:44.207Z,995.77
2018-07-03T07:30:44.247Z,995.75
2018-07-03T07:31:44.287Z,995.78
2018-07-03T07:32:44.335Z,995.76
2018-07-03T07:33:44.367Z,995.83
2018-07-03T07:34:44.407Z,995.85
2018-07-03T07:35:44.448Z,995.89
2018-07-03T07:36:44.815Z,995.88
2018-07-03T07:37:44.528Z,995.96
2018-07-03T07:38:44.569Z,996.02
2018-07-03T07:39:44.612Z,996.00
2018-07-03T07:40:44.649Z,996.10
2018-07-03T07:41:44.689Z,996.09
2018-07-03T07:42:44.759Z,996.04
2018-07-03T07:43:44.769Z,996.10
2018-07-03T07:44:44.809Z,996.07
2018-07-03T07:45:44.849Z,996.10
2018-07-03T07:46:44.891Z,996.10
2018-07-03T07:47:44.931Z,996.12
2018-07-03T07:48:44.971Z,996.06
2018-07-03T07:49:45.016Z,996.06
2018-07-03T07:50:45.053Z,996.10
2018-07-03T07:51:45.093Z,996.19
2018-07-03T07:52:45.132Z,996.18
2018-07-03T07:53:45.173Z,996.23
2018-07-03T07:54:45.212Z,996.29
2018-07-03T07:55:45.252Z,996.30
2018-07-03T07:56:45.292Z,996.34
2018-07-03T07:57:45.381Z,996.38
2018-07-03T07:58:45.373Z,996.39
2018-07-03T07:59:45.412Z,996.38
2018-07-03T08:00:45.655Z,996.41
2018-07-03T08:01:45.517Z,996.44
2018-07-03T08:02:45.533Z,996.47
2018-07-03T08:03:45.593Z,996.52
2018-07-03T08:04:45.616Z,996.52
2018-07-03T08:05:45.656Z,996.53
2018-07-03T08:06:45.760Z,996.56
2018-07-03T08:07:45.734Z,996.60
2018-07-03T08:08:45.776Z,996.61
2018-07-03T08:09:45.813Z,996.66
2018-07-03T08:10:45.853Z,996.69
2018-07-03T08:11:45.893Z,996.68
2018-07-03T08:12:45.934Z,996.69
2018-07-03T08:13:45.974Z,996.75
2018-07-03T08:14:46.014Z,996.78
2018-07-03T08:15:46.054Z,996.77
2018-07-03T08:16:46.098Z,996.81
2018-07-03T08:17:46.134Z,996.85
2018-07-03T08:18:46.174Z,996.84
2018-07-03T08:19:46.215Z,996.86
2018-07-03T08:20:46.255Z,996.94
2018-07-03T08:21:46.305Z,996.96
2018-07-03T08:22:46.344Z,996.97
2018-07-03T08:23:46.377Z,997.00
2018-07-03T08:24:46.417Z,997.04
2018-07-03T08:25:46.455Z,997.05
2018-07-03T08:26:46.500Z,997.09
2018-07-03T08:27:46.538Z,997.07
2018-07-03T08:28:46.577Z,997.11
2018-07-03T08:29:46.617Z,997.13
2018-07-03T08:30:46.660Z,997.11
2018-07-03T08:31:46.739Z,997.18
2018-07-03T08:32:46.738Z,997.16
2018-07-03T08:33:46.782Z,997.24
2018-07-03T08:34:46.818Z,997.20
2018-07-03T08:35:46.859Z,997.19
2018-07-03T08:36:46.900Z,997.26
2018-07-03T08:37:46.966Z,997.26
2018-07-03T08:38:46.979Z,997.22
2018-07-03T08:39:47.020Z,997.25
2018-07-03T08:40:47.061Z,997.23
2018-07-03T08:41:47.099Z,997.25
2018-07-03T08:42:47.176Z,997.26
2018-07-03T08:43:47.181Z,997.25
2018-07-03T08:44:47.221Z,997.25
2018-07-03T08:45:47.261Z,997.31
2018-07-03T08:46:47.308Z,997.32
2018-07-03T08:47:47.343Z,997.36
2018-07-03T08:48:47.383Z,997.36
2018-07-03T08:49:47.422Z,997.39
2018-07-03T08:50:47.463Z,997.40
2018-07-03T08:51:47.613Z,997.45
2018-07-03T08:52:47.544Z,997.43
2018-07-03T08:53:47.583Z,997.44
2018-07-03T08:54:47.627Z,997.41
2018-07-03T08:55:47.665Z,997.38
2018-07-03T08:56:47.705Z,997.39
2018-07-03T08:57:47.750Z,997.40
2018-07-03T08:58:47.785Z,997.38
2018-07-03T08:59:47.826Z,997.39
2018-07-03T09:00:47.880Z,997.40
2018-07-03T09:01:47.908Z,997.40
2018-07-03T09:02:47.949Z,997.43
2018-07-03T09:03:48.017Z,997.41
2018-07-03T09:04:48.065Z,997.38
2018-07-03T09:05:54.339Z,997.42
2018-07-03T09:06:48.111Z,997.46
2018-07-03T09:07:48.151Z,997.44
2018-07-03T09:08:48.194Z,997.46
2018-07-03T09:09:48.231Z,997.44
2018-07-03T09:10:48.272Z,997.50
2018-07-03T09:11:48.315Z,997.45
2018-07-03T09:12:48.357Z,997.45
2018-07-03T09:13:48.396Z,997.47
2018-07-03T09:14:48.437Z,997.45
2018-07-03T09:15:48.483Z,997.45
2018-07-03T09:16:48.548Z,997.48
2018-07-03T09:17:48.572Z,997.45
2018-07-03T09:18:48.607Z,997.46
2018-07-03T09:19:48.645Z,997.47
2018-07-03T09:20:48.687Z,997.48
2018-07-03T09:21:48.727Z,997.45
2018-07-03T09:22:48.771Z,997.35
2018-07-03T09:23:48.815Z,997.38
2018-07-03T09:24:48.852Z,997.37
2018-07-03T09:25:48.895Z,997.38
2018-07-03T09:26:48.936Z,997.40
2018-07-03T09:27:48.980Z,997.37
2018-07-03T09:28:49.021Z,997.40
2018-07-03T09:29:49.063Z,997.44
2018-07-03T09:30:49.108Z,997.45
2018-07-03T09:31:49.147Z,997.46
2018-07-03T09:32:49.190Z,997.45
2018-07-03T09:33:49.248Z,997.41
2018-07-03T09:34:49.274Z,997.41
2018-07-03T09:35:49.316Z,997.42
2018-07-03T09:36:49.532Z,997.49
2018-07-03T09:37:49.400Z,997.44
2018-07-03T09:38:49.443Z,997.47
2018-07-03T09:39:49.485Z,997.51
2018-07-03T09:40:49.531Z,997.45
2018-07-03T09:41:49.573Z,997.43
2018-07-03T09:42:49.612Z,997.43
2018-07-03T09:43:49.660Z,997.41
2018-07-03T09:44:49.697Z,997.45
2018-07-03T09:45:49.744Z,997.44
2018-07-03T09:46:49.784Z,997.42
2018-07-03T09:47:49.825Z,997.40
2018-07-03T09:48:49.882Z,997.38
2018-07-03T09:49:49.912Z,997.41
2018-07-03T09:50:49.956Z,997.39
2018-07-03T09:51:49.998Z,997.40
2018-07-03T09:52:50.042Z,997.40
2018-07-03T09:53:50.085Z,997.39
2018-07-03T09:54:50.238Z,997.39
2018-07-03T09:55:50.171Z,997.38
2018-07-03T09:56:50.214Z,997.37
2018-07-03T09:57:50.308Z,997.39
2018-07-03T09:58:50.301Z,997.36
2018-07-03T09:59:50.345Z,997.43
2018-07-03T10:00:50.388Z,997.42
2018-07-03T10:01:50.431Z,997.45
2018-07-03T10:02:50.473Z,997.38
2018-07-03T10:03:50.518Z,997.41
2018-07-03T10:04:50.561Z,997.36
2018-07-03T10:05:50.607Z,997.27
2018-07-03T10:06:50.646Z,997.24
2018-07-03T10:07:50.691Z,997.28
2018-07-03T10:08:50.737Z,997.36
2018-07-03T10:09:50.778Z,997.42
2018-07-03T10:10:50.821Z,997.36
2018-07-03T10:11:50.865Z,997.27
2018-07-03T10:12:50.910Z,997.24
2018-07-03T10:13:50.950Z,997.33
2018-07-03T10:14:50.995Z,997.27
2018-07-03T10:15:51.038Z,997.30
2018-07-03T10:16:51.081Z,997.31
2018-07-03T10:17:51.122Z,997.26
2018-07-03T10:18:51.209Z,997.26
2018-07-03T10:19:51.214Z,997.30
2018-07-03T10:20:51.252Z,997.30
2018-07-03T10:21:51.296Z,997.31
2018-07-03T10:22:51.338Z,997.28
2018-07-03T10:23:51.381Z,997.29
2018-07-03T10:24:51.424Z,997.23
2018-07-03T10:25:51.467Z,997.26
2018-07-03T10:26:51.508Z,997.18
2018-07-03T10:27:51.553Z,997.20
2018-07-03T10:28:51.595Z,997.17
2018-07-03T10:29:51.637Z,997.14
2018-07-03T10:30:51.684Z,997.17
2018-07-03T10:31:51.725Z,997.22
2018-07-03T10:32:51.772Z,997.18
2018-07-03T10:33:51.808Z,997.23
2018-07-03T10:34:51.852Z,997.21
2018-07-03T10:35:51.896Z,997.19
2018-07-03T10:36:51.939Z,997.15
2018-07-03T10:37:51.981Z,997.19
2018-07-03T10:38:52.027Z,997.26
2018-07-03T10:39:52.067Z,997.28
2018-07-03T10:40:52.112Z,997.25
2018-07-03T10:41:52.153Z,997.27
2018-07-03T10:42:52.197Z,997.30
2018-07-03T10:43:52.248Z,997.27
2018-07-03T10:44:52.284Z,997.33
2018-07-03T10:45:52.326Z,997.33
2018-07-03T10:46:52.370Z,997.31
2018-07-03T10:47:52.415Z,997.33
2018-07-03T10:48:52.510Z,997.42
2018-07-03T10:49:52.502Z,997.44
2018-07-03T10:50:52.546Z,997.46
2018-07-03T10:51:52.593Z,997.52
2018-07-03T10:52:52.637Z,997.47
2018-07-03T10:53:52.681Z,997.49
2018-07-03T10:54:52.727Z,997.52
2018-07-03T10:55:52.774Z,997.57
2018-07-03T10:56:52.821Z,997.53
2018-07-03T10:57:52.867Z,997.61
2018-07-03T10:59:52.962Z,997.57
2018-07-03T11:00:55.835Z,997.57
2018-07-03T11:01:56.893Z,997.62
2018-07-03T11:02:54.117Z,997.68
2018-07-03T11:03:53.154Z,997.77
2018-07-03T11:04:53.202Z,997.73
2018-07-03T11:05:53.252Z,997.65
2018-07-03T11:06:53.300Z,997.41
2018-07-03T11:07:53.351Z,997.71
2018-07-03T11:08:53.400Z,997.41
2018-07-03T11:09:53.449Z,997.38
2018-07-03T11:10:53.498Z,997.39
2018-07-03T11:11:53.547Z,997.23
2018-07-03T11:12:53.600Z,997.25
2018-07-03T11:13:53.715Z,997.22
2018-07-03T11:14:53.695Z,997.19
2018-07-03T11:15:53.748Z,997.18
2018-07-03T11:16:53.793Z,997.68
2018-07-03T11:17:53.842Z,997.89
2018-07-03T11:18:53.890Z,997.41
2018-07-03T11:19:54.069Z,997.41
2018-07-03T11:20:53.989Z,997.55
2018-07-03T11:21:54.036Z,997.47
2018-07-03T11:22:54.086Z,997.50
2018-07-03T11:24:54.185Z,997.22
2018-07-03T11:25:54.238Z,997.06
2018-07-03T11:26:54.284Z,997.06
2018-07-03T11:27:54.334Z,996.95
2018-07-03T11:28:54.415Z,997.04
2018-07-03T11:29:54.432Z,996.95
2018-07-03T11:30:54.482Z,996.91
2018-07-03T11:31:54.532Z,996.90
2018-07-03T11:32:54.581Z,996.97
2018-07-03T11:33:54.629Z,996.93
2018-07-03T11:34:54.678Z,996.99
2018-07-03T11:35:54.727Z,997.01
2018-07-03T11:36:54.776Z,996.94
2018-07-03T11:37:54.823Z,997.02
2018-07-03T11:38:54.872Z,996.96
2018-07-03T11:39:54.920Z,996.95
2018-07-03T11:40:54.968Z,996.98
2018-07-03T11:41:55.015Z,997.15
2018-07-03T11:42:55.118Z,996.93
2018-07-03T11:43:55.111Z,996.85
2018-07-03T11:44:55.159Z,997.53
2018-07-03T11:45:55.206Z,996.91
2018-07-03T11:46:55.253Z,997.00
2018-07-03T11:47:55.301Z,996.95
2018-07-03T11:48:55.348Z,996.96
2018-07-03T11:49:55.395Z,997.01
2018-07-03T11:50:55.443Z,996.99
2018-07-03T11:51:55.490Z,997.38
2018-07-03T11:52:55.538Z,997.72
2018-07-03T11:53:55.583Z,998.04
2018-07-03T11:54:55.632Z,997.91
2018-07-03T11:55:55.680Z,997.38
2018-07-03T11:56:55.729Z,997.89
2018-07-03T11:57:59.209Z,997.87
2018-07-03T11:58:55.826Z,997.77
2018-07-03T11:59:55.876Z,997.66
2018-07-03T12:00:55.925Z,997.78
2018-07-03T12:01:55.975Z,997.85
2018-07-03T12:02:56.026Z,997.91
2018-07-03T12:03:56.095Z,997.72
2018-07-03T12:04:56.127Z,997.67
2018-07-03T12:05:56.180Z,997.71
2018-07-03T12:06:56.229Z,997.52
2018-07-03T12:07:56.284Z,997.69
2018-07-03T12:08:56.555Z,997.84
2018-07-03T12:09:56.385Z,997.85
2018-07-03T12:10:56.864Z,997.78
2018-07-03T12:11:56.506Z,997.86
2018-07-03T12:12:56.565Z,997.79
2018-07-03T12:13:56.596Z,997.81
2018-07-03T12:14:56.661Z,997.81
2018-07-03T12:15:56.706Z,997.75
2018-07-03T12:16:56.760Z,997.77
2018-07-03T12:17:56.810Z,997.75
2018-07-03T12:18:56.864Z,997.76
2018-07-03T12:19:57.003Z,997.68
2018-07-03T12:20:56.973Z,997.59
2018-07-03T12:21:57.027Z,997.63
2018-07-03T12:22:57.159Z,997.60
2018-07-03T12:23:57.171Z,997.57
2018-07-03T12:24:57.198Z,997.56
2018-07-03T12:25:57.245Z,997.51
2018-07-03T12:26:57.299Z,997.44
2018-07-03T12:27:57.355Z,997.25
2018-07-03T12:28:57.528Z,997.10
2018-07-03T12:29:57.464Z,996.97
2018-07-03T12:30:57.519Z,997.00
2018-07-03T12:31:57.574Z,997.12
2018-07-03T12:32:57.678Z,997.00
2018-07-03T12:36:48.777Z,996.77
2018-07-03T12:38:41.336Z,996.86
2018-07-03T12:39:41.386Z,997.30
2018-07-03T12:40:41.439Z,997.43
2018-07-03T12:41:41.516Z,997.50
2018-07-03T12:42:41.566Z,997.56
2018-07-03T12:44:41.648Z,996.83
2018-07-03T12:45:41.720Z,997.35
2018-07-03T12:46:41.973Z,997.15
2018-07-03T12:47:41.822Z,996.78
2018-07-03T12:48:41.876Z,996.99
2018-07-03T12:49:41.953Z,997.49
2018-07-03T12:50:41.961Z,997.43
2018-07-03T12:51:42.014Z,997.45
2018-07-03T12:52:42.066Z,997.54
2018-07-03T12:53:42.119Z,997.36
2018-07-03T12:54:42.170Z,997.36
2018-07-03T12:55:42.224Z,997.40
2018-07-03T12:56:42.275Z,997.11
2018-07-03T12:57:42.329Z,997.32
2018-07-03T12:58:42.380Z,997.30
2018-07-03T12:59:42.432Z,997.34
2018-07-03T13:00:42.522Z,997.32
2018-07-03T13:01:42.538Z,997.37
2018-07-03T13:02:42.591Z,997.28
2018-07-03T13:03:42.644Z,997.20
2018-07-03T13:04:42.697Z,997.03
2018-07-03T13:05:42.751Z,996.96
2018-07-03T13:06:42.803Z,997.08
2018-07-03T13:07:42.871Z,997.42
2018-07-03T13:08:42.908Z,997.44
2018-07-03T13:09:42.963Z,997.49
2018-07-03T13:10:43.249Z,997.20
2018-07-03T13:11:43.068Z,996.67
2018-07-03T13:12:43.126Z,996.61
2018-07-03T13:13:43.179Z,997.01
2018-07-03T13:14:43.226Z,996.93
2018-07-03T13:15:43.284Z,996.82
2018-07-03T13:16:43.333Z,996.63
2018-07-03T13:17:43.386Z,996.52
2018-07-03T13:18:43.438Z,996.48
2018-07-03T13:19:43.491Z,996.51
2018-07-03T13:20:43.552Z,996.46
2018-07-03T13:21:43.601Z,996.44
2018-07-03T13:22:43.648Z,996.39
2018-07-03T13:23:43.701Z,996.43
2018-07-03T13:24:43.753Z,996.35
2018-07-03T13:25:43.805Z,996.40
2018-07-03T13:26:43.858Z,996.42
2018-07-03T13:27:43.908Z,997.14
2018-07-03T13:28:43.959Z,997.20
2018-07-03T13:29:44.012Z,997.28
2018-07-03T13:30:44.062Z,996.88
2018-07-03T13:31:44.113Z,996.55
2018-07-03T13:32:44.165Z,996.37
2018-07-03T13:33:44.214Z,996.27
2018-07-03T13:34:44.266Z,996.33
2018-07-03T13:35:44.525Z,996.24
2018-07-03T13:36:44.370Z,996.27
2018-07-03T13:37:44.420Z,996.29
2018-07-03T13:38:44.469Z,996.34
2018-07-03T13:39:44.521Z,996.89
2018-07-03T13:40:44.572Z,997.14
2018-07-03T13:41:44.624Z,996.31
2018-07-03T13:42:44.672Z,996.19
2018-07-03T13:43:44.725Z,996.17
2018-07-03T13:44:44.774Z,996.14
2018-07-03T13:45:44.824Z,996.14
2018-07-03T13:46:44.872Z,996.20
2018-07-03T13:47:44.923Z,996.12
2018-07-03T13:48:44.983Z,996.14
2018-07-03T13:49:45.025Z,996.14
2018-07-03T13:50:45.073Z,996.14
2018-07-03T13:51:45.122Z,996.11
2018-07-03T13:52:45.172Z,996.10
2018-07-03T13:53:45.221Z,996.18
2018-07-03T13:54:45.269Z,996.41
2018-07-03T13:55:45.323Z,996.69